createdAt,value
2018-03-19T00:01:11.618Z,11.27
2018-03-19T00:03:39.488Z,10.50
2018-03-19T00:06:08.243Z,10.40
2018-03-19T00:08:37.491Z,10.90
2018-03-19T00:11:09.325Z,11.00
2018-03-19T00:13:37.813Z,11.03
2018-03-19T00:16:06.245Z,10.93
2018-03-19T00:18:35.908Z,11.03
2018-03-19T00:21:04.627Z,11.43
2018-03-19T00:23:33.979Z,10.67
2018-03-19T00:26:02.752Z,12.07
2018-03-19T00:28:31.232Z,13.77
2018-03-19T00:30:59.457Z,12.40
2018-03-19T00:43:12.573Z,9.70
2018-03-19T00:45:41.536Z,10.10
2018-03-19T00:48:10.666Z,10.90
2018-03-19T00:50:40.733Z,10.77
2018-03-19T00:53:08.771Z,11.50
2018-03-19T00:55:36.944Z,11.03
2018-03-19T00:58:08.492Z,11.27
2018-03-19T01:00:38.160Z,10.73
2018-03-19T01:03:06.567Z,10.67
2018-03-19T01:05:37.110Z,11.43
2018-03-19T01:08:04.686Z,11.57
2018-03-19T01:10:33.085Z,10.50
2018-03-19T01:13:01.172Z,11.13
2018-03-19T01:15:31.028Z,11.80
2018-03-19T01:18:00.040Z,11.63
2018-03-19T01:20:28.516Z,10.30
2018-03-19T01:22:58.215Z,10.70
2018-03-19T01:25:27.156Z,11.00
2018-03-19T01:27:55.979Z,10.10
2018-03-19T01:30:26.977Z,10.83
2018-03-19T01:32:55.199Z,10.07
2018-03-19T01:35:23.983Z,10.90
2018-03-19T01:37:52.667Z,9.63
2018-03-19T01:40:22.462Z,9.50
2018-03-19T01:42:52.027Z,9.80
2018-03-19T01:45:20.101Z,10.50
2018-03-19T01:47:48.724Z,10.60
2018-03-19T01:50:17.404Z,10.43
2018-03-19T01:52:49.945Z,10.47
2018-03-19T01:55:18.909Z,11.20
2018-03-19T01:57:47.606Z,10.70
2018-03-19T02:00:15.778Z,10.47
2018-03-19T02:02:46.397Z,9.97
2018-03-19T02:05:14.861Z,10.93
2018-03-19T02:07:43.165Z,10.77
2018-03-19T02:10:11.496Z,10.87
2018-03-19T02:12:39.503Z,9.70
2018-03-19T02:15:08.510Z,11.10
2018-03-19T02:17:37.747Z,11.47
2018-03-19T02:20:07.300Z,10.87
2018-03-19T02:22:36.449Z,12.00
2018-03-19T02:25:05.050Z,10.40
2018-03-19T02:27:35.808Z,11.93
2018-03-19T02:30:04.397Z,12.40
2018-03-19T02:32:33.146Z,10.70
2018-03-19T02:35:01.638Z,10.30
2018-03-19T02:37:30.096Z,11.03
2018-03-19T02:39:58.817Z,11.53
2018-03-19T02:42:30.295Z,11.73
2018-03-19T02:45:00.669Z,10.80
2018-03-19T02:47:28.872Z,10.87
2018-03-19T02:49:58.408Z,12.00
2018-03-19T02:52:25.966Z,10.87
2018-03-19T02:54:54.710Z,11.27
2018-03-19T02:57:23.408Z,10.80
2018-03-19T02:59:52.637Z,11.23
2018-03-19T03:02:22.255Z,11.20
2018-03-19T03:04:50.967Z,11.20
2018-03-19T03:07:22.223Z,10.60
2018-03-19T03:09:50.753Z,11.27
2018-03-19T03:12:19.963Z,12.23
2018-03-19T03:14:48.378Z,11.87
2018-03-19T03:17:15.926Z,12.73
2018-03-19T03:19:45.144Z,11.53
2018-03-19T03:22:14.139Z,11.80
2018-03-19T03:24:42.280Z,11.90
2018-03-19T03:27:12.513Z,11.23
2018-03-19T03:29:42.930Z,11.73
2018-03-19T03:32:12.385Z,12.87
2018-03-19T03:34:41.003Z,11.83
2018-03-19T03:37:09.003Z,12.43
2018-03-19T03:39:37.676Z,12.03
2018-03-19T03:42:06.083Z,12.37
2018-03-19T03:44:35.088Z,13.77
2018-03-19T03:47:03.228Z,13.70
2018-03-19T03:49:32.022Z,12.00
2018-03-19T03:52:03.856Z,13.00
2018-03-19T03:54:33.075Z,11.97
2018-03-19T03:57:02.747Z,10.87
2018-03-19T03:59:32.450Z,10.97
2018-03-19T04:02:01.084Z,13.97
2018-03-19T04:04:29.136Z,11.07
2018-03-19T04:06:57.621Z,12.60
2018-03-19T04:09:25.890Z,12.27
2018-03-19T04:11:54.842Z,12.97
2018-03-19T04:14:23.221Z,12.50
2018-03-19T04:16:53.432Z,12.50
2018-03-19T04:19:23.563Z,13.70
2018-03-19T04:21:52.426Z,12.57
2018-03-19T04:24:21.585Z,12.47
2018-03-19T04:26:51.804Z,13.13
2018-03-19T04:29:19.980Z,12.03
2018-03-19T04:31:48.109Z,12.87
2018-03-19T04:34:16.870Z,11.63
2018-03-19T04:36:45.802Z,12.30
2018-03-19T04:39:14.303Z,12.50
2018-03-19T04:41:41.922Z,12.30
2018-03-19T04:44:10.010Z,12.97
2018-03-19T04:46:39.757Z,15.20
2018-03-19T04:49:09.286Z,12.00
2018-03-19T04:51:37.775Z,13.63
2018-03-19T04:54:05.851Z,12.20
2018-03-19T04:56:34.266Z,12.60
2018-03-19T04:59:02.747Z,13.03
2018-03-19T05:01:31.943Z,12.70
2018-03-19T05:04:02.371Z,13.63
2018-03-19T05:06:31.561Z,12.97
2018-03-19T05:09:01.313Z,13.20
2018-03-19T05:11:30.353Z,12.87
2018-03-19T05:13:58.711Z,12.80
2018-03-19T05:16:28.601Z,12.07
2018-03-19T05:18:58.425Z,12.30
2018-03-19T05:21:27.355Z,13.97
2018-03-19T05:23:54.966Z,13.83
2018-03-19T05:26:25.526Z,14.53
2018-03-19T05:28:54.880Z,14.10
2018-03-19T05:31:23.824Z,13.43
2018-03-19T05:33:53.529Z,13.23
2018-03-19T05:36:21.181Z,12.77
2018-03-19T05:38:51.029Z,13.50
2018-03-19T05:41:21.178Z,15.17
2018-03-19T05:43:52.811Z,13.67
2018-03-19T05:46:20.839Z,12.70
2018-03-19T05:48:51.284Z,13.30
2018-03-19T05:51:18.939Z,13.07
2018-03-19T05:53:47.367Z,13.00
2018-03-19T05:56:17.383Z,14.60
2018-03-19T05:58:48.373Z,13.67
2018-03-19T06:01:18.479Z,12.73
2018-03-19T06:03:49.646Z,13.00
2018-03-19T06:06:17.873Z,13.20
2018-03-19T06:08:47.079Z,12.67
2018-03-19T06:11:16.193Z,13.97
2018-03-19T06:13:46.301Z,14.87
2018-03-19T06:16:15.875Z,13.43
2018-03-19T06:18:44.497Z,14.70
2018-03-19T06:21:13.671Z,14.50
2018-03-19T06:23:41.345Z,14.17
2018-03-19T06:26:10.127Z,13.40
2018-03-19T06:28:40.796Z,13.80
2018-03-19T06:31:12.112Z,14.03
2018-03-19T06:33:45.663Z,14.40
2018-03-19T06:36:13.904Z,14.57
2018-03-19T06:38:43.196Z,15.37
2018-03-19T06:41:12.380Z,13.07
2018-03-19T06:43:41.773Z,13.87
2018-03-19T06:46:10.854Z,14.77
2018-03-19T06:48:39.211Z,13.43
2018-03-19T06:51:08.174Z,13.27
2018-03-19T06:53:38.166Z,14.07
2018-03-19T06:56:06.949Z,14.40
2018-03-19T06:58:35.987Z,14.00
2018-03-19T07:01:07.062Z,14.30
2018-03-19T07:03:36.290Z,14.90
2018-03-19T07:06:04.801Z,13.73
2018-03-19T07:08:33.801Z,12.30
2018-03-19T07:11:05.219Z,13.93
2018-03-19T07:13:33.256Z,13.67
2018-03-19T07:16:01.962Z,14.93
2018-03-19T07:18:31.006Z,13.40
2018-03-19T07:21:02.219Z,14.50
2018-03-19T07:23:30.941Z,14.10
2018-03-19T07:25:59.944Z,14.27
2018-03-19T07:28:29.162Z,12.97
2018-03-19T07:30:57.687Z,13.37
2018-03-19T07:33:26.450Z,13.77
2018-03-19T07:35:55.311Z,14.70
2018-03-19T07:38:23.523Z,13.70
2018-03-19T07:40:53.046Z,15.80
2018-03-19T07:43:20.836Z,15.13
2018-03-19T07:45:49.742Z,14.23
2018-03-19T07:48:17.919Z,13.30
2018-03-19T07:50:47.813Z,14.50
2018-03-19T07:53:18.500Z,14.10
2018-03-19T07:55:48.894Z,13.90
2018-03-19T07:58:18.172Z,14.87
2018-03-19T08:00:47.969Z,13.70
2018-03-19T08:03:18.432Z,15.10
2018-03-19T08:05:47.939Z,13.50
2018-03-19T08:08:18.285Z,14.00
2018-03-19T08:10:46.434Z,14.80
2018-03-19T08:13:16.038Z,13.23
2018-03-19T08:15:44.986Z,14.90
2018-03-19T08:18:14.229Z,14.50
2018-03-19T08:20:42.415Z,15.27
2018-03-19T08:23:11.805Z,13.30
2018-03-19T08:25:41.457Z,13.43
2018-03-19T08:28:10.885Z,13.30
2018-03-19T08:30:41.461Z,15.10
2018-03-19T08:33:10.841Z,13.17
2018-03-19T08:35:41.969Z,14.33
2018-03-19T08:38:14.023Z,13.47
2018-03-19T08:40:43.045Z,13.60
2018-03-19T08:52:57.363Z,12.50
2018-03-19T08:55:27.820Z,13.53
2018-03-19T08:57:55.948Z,12.50
2018-03-19T09:00:29.579Z,12.70
2018-03-19T09:02:58.697Z,16.90
2018-03-19T09:05:27.883Z,14.70
2018-03-19T09:07:56.655Z,13.30
2018-03-19T09:10:26.575Z,14.17
2018-03-19T09:12:55.598Z,14.10
2018-03-19T09:15:23.241Z,12.40
2018-03-19T09:17:50.902Z,15.00
2018-03-19T09:20:18.525Z,14.90
2018-03-19T09:22:46.843Z,14.50
2018-03-19T09:25:14.770Z,13.03
2018-03-19T09:27:42.319Z,11.80
2018-03-19T09:30:09.959Z,13.90
2018-03-19T09:32:38.314Z,13.50
2018-03-19T09:35:07.238Z,13.57
2018-03-19T09:37:34.885Z,14.63
2018-03-19T09:40:03.191Z,13.97
2018-03-19T09:42:31.673Z,12.20
2018-03-19T09:45:00.243Z,13.40
2018-03-19T09:47:28.431Z,13.90
2018-03-19T09:49:56.935Z,13.13
2018-03-19T09:52:26.609Z,14.40
2018-03-19T09:54:54.240Z,12.50
2018-03-19T09:57:21.823Z,13.00
2018-03-19T09:59:50.273Z,13.63
2018-03-19T10:02:17.923Z,13.57
2018-03-19T10:04:46.506Z,14.30
2018-03-19T10:07:14.843Z,12.90
2018-03-19T10:09:43.224Z,13.57
2018-03-19T10:12:11.547Z,15.70
2018-03-19T10:14:39.938Z,18.67
2018-03-19T10:17:08.331Z,16.90
2018-03-19T10:19:37.445Z,14.43
2018-03-19T10:22:05.618Z,14.93
2018-03-19T10:24:33.636Z,13.10
2018-03-19T10:27:01.660Z,15.17
2018-03-19T10:29:29.254Z,14.67
2018-03-19T10:31:57.571Z,14.33
2018-03-19T10:34:25.759Z,13.90
2018-03-19T10:36:53.318Z,12.70
2018-03-19T10:39:21.812Z,13.20
2018-03-19T10:41:49.398Z,14.27
2018-03-19T10:44:16.950Z,12.10
2018-03-19T10:46:45.345Z,15.00
2018-03-19T10:49:12.927Z,14.93
2018-03-19T10:51:41.835Z,13.50
2018-03-19T10:54:09.580Z,13.13
2018-03-19T10:56:38.371Z,15.43
2018-03-19T10:59:06.003Z,13.93
2018-03-19T11:01:39.225Z,13.63
2018-03-19T11:04:14.441Z,13.73
2018-03-19T11:06:48.652Z,13.87
2018-03-19T11:09:21.957Z,13.57
2018-03-19T11:11:51.850Z,15.10
2018-03-19T11:14:19.562Z,14.20
2018-03-19T11:16:48.017Z,14.60
2018-03-19T11:19:16.501Z,13.80
2018-03-19T11:21:46.128Z,14.20
2018-03-19T11:24:13.740Z,14.80
2018-03-19T11:26:41.350Z,16.50
2018-03-19T11:29:09.739Z,15.60
2018-03-19T11:31:37.511Z,15.20
2018-03-19T11:34:05.637Z,15.20
2018-03-19T11:36:33.272Z,14.20
2018-03-19T11:39:01.025Z,15.43
2018-03-19T11:41:28.583Z,15.07
2018-03-19T11:43:57.145Z,16.60
2018-03-19T11:46:26.582Z,15.40
2018-03-19T11:48:54.379Z,15.97
2018-03-19T11:51:22.799Z,17.17
2018-03-19T11:53:50.721Z,16.40
2018-03-19T11:56:18.326Z,18.43
2018-03-19T11:58:45.945Z,23.70
2018-03-19T12:01:13.505Z,18.63
2018-03-19T12:03:42.039Z,15.53
2018-03-19T12:06:09.633Z,15.47
2018-03-19T12:08:37.932Z,15.00
2018-03-19T12:11:07.113Z,15.10
2018-03-19T12:13:34.668Z,15.50
2018-03-19T12:16:02.256Z,15.07
2018-03-19T12:18:31.550Z,15.33
2018-03-19T12:20:59.096Z,15.20
2018-03-19T12:23:26.661Z,15.70
2018-03-19T12:25:54.443Z,15.70
2018-03-19T12:28:22.030Z,17.97
2018-03-19T12:30:49.567Z,19.27
2018-03-19T12:33:17.960Z,16.10
2018-03-19T12:35:45.710Z,16.03
2018-03-19T12:38:13.711Z,15.67
2018-03-19T12:40:41.337Z,15.50
2018-03-19T12:43:09.469Z,16.50
2018-03-19T12:45:37.718Z,15.70
2018-03-19T12:48:06.072Z,15.83
2018-03-19T12:50:33.669Z,16.37
2018-03-19T12:53:01.309Z,16.37
2018-03-19T12:55:28.894Z,16.87
2018-03-19T12:57:56.609Z,18.03
2018-03-19T13:00:25.593Z,16.57
2018-03-19T13:02:54.348Z,17.37
2018-03-19T13:05:22.069Z,17.30
2018-03-19T13:07:50.403Z,16.30
2018-03-19T13:10:18.029Z,16.00
2018-03-19T13:12:45.635Z,16.70
2018-03-19T13:15:13.281Z,16.50
2018-03-19T13:17:41.788Z,17.67
2018-03-19T13:20:10.323Z,16.50
2018-03-19T13:22:37.945Z,18.57
2018-03-19T13:25:06.282Z,17.60
2018-03-19T13:27:33.877Z,18.53
2018-03-19T13:30:01.507Z,17.77
2018-03-19T13:32:29.116Z,17.20
2018-03-19T13:34:57.750Z,17.40
2018-03-19T13:37:25.924Z,18.07
2018-03-19T13:39:53.479Z,17.37
2018-03-19T13:42:21.658Z,18.00
2018-03-19T13:44:49.227Z,20.50
2018-03-19T13:47:19.737Z,18.03
2018-03-19T13:49:47.288Z,18.40
2018-03-19T13:52:15.399Z,19.53
2018-03-19T13:54:43.015Z,16.53
2018-03-19T13:57:11.214Z,16.90
2018-03-19T13:59:38.754Z,19.37
2018-03-19T14:02:06.652Z,18.57
2018-03-19T14:04:36.143Z,17.03
2018-03-19T14:07:03.708Z,18.47
2018-03-19T14:09:31.256Z,18.00
2018-03-19T14:12:00.566Z,19.70
2018-03-19T14:14:28.756Z,19.30
2018-03-19T14:16:56.326Z,19.80
2018-03-19T14:19:25.107Z,20.50
2018-03-19T14:21:53.266Z,19.33
2018-03-19T14:24:20.833Z,18.90
2018-03-19T14:26:49.070Z,20.17
2018-03-19T14:29:16.669Z,19.23
2018-03-19T14:31:44.276Z,18.77
2018-03-19T14:34:12.396Z,18.30
2018-03-19T14:36:39.973Z,18.50
2018-03-19T14:39:07.637Z,20.50
2018-03-19T14:41:36.871Z,20.00
2018-03-19T14:44:04.792Z,17.57
2018-03-19T14:46:32.388Z,19.50
2018-03-19T14:48:59.989Z,18.87
2018-03-19T14:51:29.095Z,18.97
2018-03-19T14:53:56.682Z,18.60
2018-03-19T14:56:24.323Z,18.63
2018-03-19T14:58:51.957Z,19.73
2018-03-19T15:01:20.307Z,19.00
2018-03-19T15:03:48.646Z,19.10
2018-03-19T15:06:16.247Z,19.47
2018-03-19T15:08:44.598Z,18.00
2018-03-19T15:11:13.652Z,19.10
2018-03-19T15:13:41.872Z,17.70
2018-03-19T15:16:09.432Z,19.37
2018-03-19T15:18:37.725Z,19.70
2018-03-19T15:21:06.163Z,19.30
2018-03-19T15:23:34.837Z,19.13
2018-03-19T15:26:02.406Z,18.50
2018-03-19T15:28:30.854Z,19.67
2018-03-19T15:30:59.170Z,20.00
2018-03-19T15:33:27.302Z,18.87
2018-03-19T15:35:55.829Z,18.30
2018-03-19T15:38:23.381Z,17.80
2018-03-19T15:40:51.004Z,18.07
2018-03-19T15:43:19.329Z,18.57
2018-03-19T15:45:47.452Z,18.37
2018-03-19T15:48:17.190Z,18.80
2018-03-19T15:50:45.232Z,18.40
2018-03-19T15:53:13.727Z,17.77
2018-03-19T15:55:41.958Z,18.80
2018-03-19T15:58:09.571Z,21.23
2018-03-19T16:00:41.074Z,19.83
2018-03-19T16:03:08.665Z,18.93
2018-03-19T16:05:37.018Z,20.43
2018-03-19T16:08:04.794Z,19.10
2018-03-19T16:10:32.510Z,21.40
2018-03-19T16:13:00.060Z,21.40
2018-03-19T16:15:27.815Z,20.80
2018-03-19T16:17:55.848Z,20.30
2018-03-19T16:20:24.184Z,18.83
2018-03-19T16:22:53.061Z,20.57
2018-03-19T16:25:21.128Z,19.03
2018-03-19T16:27:48.715Z,19.97
2018-03-19T16:30:16.319Z,19.97
2018-03-19T16:32:44.630Z,18.57
2018-03-19T16:35:12.228Z,22.27
2018-03-19T16:37:40.956Z,20.10
2018-03-19T16:40:08.534Z,20.13
2018-03-19T16:42:36.983Z,18.77
2018-03-19T16:45:05.314Z,21.00
2018-03-19T16:47:32.874Z,19.43
2018-03-19T16:50:00.462Z,20.13
2018-03-19T16:52:30.552Z,20.10
2018-03-19T16:54:58.412Z,20.47
2018-03-19T16:57:26.906Z,20.60
2018-03-19T16:59:55.514Z,18.50
2018-03-19T17:02:23.100Z,21.70
2018-03-19T17:04:50.710Z,22.20
2018-03-19T17:07:18.923Z,21.90
2018-03-19T17:09:46.563Z,21.50
2018-03-19T17:12:15.503Z,21.50
2018-03-19T17:14:44.695Z,21.00
2018-03-19T17:17:12.331Z,21.13
2018-03-19T17:19:40.067Z,22.27
2018-03-19T17:22:08.200Z,20.70
2018-03-19T17:24:36.985Z,20.97
2018-03-19T17:27:04.546Z,19.33
2018-03-19T17:29:32.299Z,19.70
2018-03-19T17:32:00.117Z,21.97
2018-03-19T17:34:27.691Z,22.00
2018-03-19T17:36:55.764Z,20.70
2018-03-19T17:39:23.389Z,21.13
2018-03-19T17:41:50.995Z,25.13
2018-03-19T17:44:19.315Z,23.90
2018-03-19T17:46:47.029Z,22.43
2018-03-19T17:49:14.707Z,19.50
2018-03-19T17:51:42.254Z,22.50
2018-03-19T17:54:09.954Z,19.87
2018-03-19T17:56:37.540Z,18.97
2018-03-19T17:59:05.608Z,21.53
2018-03-19T18:01:33.375Z,20.70
2018-03-19T18:04:00.924Z,20.10
2018-03-19T18:06:28.998Z,20.17
2018-03-19T18:08:57.221Z,19.27
2018-03-19T18:11:24.804Z,20.07
2018-03-19T18:13:53.196Z,17.70
2018-03-19T18:16:20.807Z,17.83
2018-03-19T18:18:48.372Z,19.07
2018-03-19T18:21:16.753Z,19.63
2018-03-19T18:23:45.974Z,18.10
2018-03-19T18:26:13.543Z,17.30
2018-03-19T18:28:41.157Z,19.63
2018-03-19T18:31:10.091Z,17.97
2018-03-19T18:33:38.128Z,20.40
2018-03-19T18:36:07.046Z,20.03
2018-03-19T18:38:36.291Z,19.67
2018-03-19T18:41:03.924Z,20.27
2018-03-19T18:43:31.484Z,18.67
2018-03-19T18:46:00.640Z,19.57
2018-03-19T18:48:29.306Z,17.93
2018-03-19T18:50:56.870Z,20.77
2018-03-19T18:53:26.673Z,23.00
2018-03-19T18:55:57.220Z,21.47
2018-03-19T18:58:25.914Z,19.07
2018-03-19T19:00:53.484Z,20.60
2018-03-19T19:03:21.707Z,20.60
2018-03-19T19:05:49.278Z,21.60
2018-03-19T19:08:16.821Z,20.27
2018-03-19T19:10:45.552Z,24.00
2018-03-19T19:13:13.884Z,23.47
2018-03-19T19:15:42.329Z,21.53
2018-03-19T19:18:09.952Z,21.63
2018-03-19T19:20:37.492Z,22.00
2018-03-19T19:23:05.681Z,20.07
2018-03-19T19:25:33.616Z,21.93
2018-03-19T19:28:01.216Z,20.07
2018-03-19T19:30:31.368Z,20.27
2018-03-19T19:32:59.873Z,21.30
2018-03-19T19:35:29.388Z,23.10
2018-03-19T19:38:00.765Z,21.10
2018-03-19T19:40:31.136Z,22.20
2018-03-19T19:42:59.693Z,21.97
2018-03-19T19:45:28.952Z,23.10
2018-03-19T19:47:58.801Z,21.83
2018-03-19T19:50:26.358Z,22.83
2018-03-19T19:52:54.416Z,22.37
2018-03-19T19:55:24.254Z,24.97
2018-03-19T19:57:51.946Z,22.50
2018-03-19T20:00:20.667Z,22.43
2018-03-19T20:02:49.840Z,22.50
2018-03-19T20:05:18.908Z,24.13
2018-03-19T20:07:48.023Z,26.53
2018-03-19T20:10:16.491Z,25.20
2018-03-19T20:12:46.169Z,22.33
2018-03-19T20:15:15.445Z,23.27
2018-03-19T20:17:45.319Z,24.00
2018-03-19T20:20:16.427Z,24.10
2018-03-19T20:22:44.875Z,24.07
2018-03-19T20:25:15.713Z,24.47
2018-03-19T20:27:45.139Z,25.20
2018-03-19T20:30:13.418Z,25.23
2018-03-19T20:32:41.817Z,24.70
2018-03-19T20:35:10.861Z,24.00
2018-03-19T20:37:39.490Z,23.03
2018-03-19T20:40:08.579Z,23.13
2018-03-19T20:42:36.486Z,24.10
2018-03-19T20:45:07.144Z,23.70
2018-03-19T20:47:35.771Z,23.43
2018-03-19T20:50:05.059Z,23.50
2018-03-19T20:52:34.697Z,24.20
2018-03-19T20:55:05.292Z,25.07
2018-03-19T20:57:34.845Z,22.83
2018-03-19T21:00:04.429Z,24.30
2018-03-19T21:02:32.278Z,22.80
2018-03-19T21:04:59.869Z,24.13
2018-03-19T21:07:27.497Z,23.77
2018-03-19T21:09:56.734Z,24.33
2018-03-19T21:12:24.563Z,24.53
2018-03-19T21:14:53.548Z,25.93
2018-03-19T21:17:21.533Z,24.60
2018-03-19T21:19:49.809Z,31.93
2018-03-19T21:22:20.657Z,26.60
2018-03-19T21:24:49.250Z,27.13
2018-03-19T21:27:18.201Z,26.33
2018-03-19T21:29:47.234Z,27.00
2018-03-19T21:32:17.795Z,27.30
2018-03-19T21:34:46.205Z,28.40
2018-03-19T21:37:15.170Z,26.30
2018-03-19T21:39:44.392Z,28.60
2018-03-19T21:42:12.763Z,25.90
2018-03-19T21:44:43.332Z,26.33
2018-03-19T21:47:11.680Z,25.93
2018-03-19T21:49:42.277Z,27.23
2018-03-19T21:52:11.868Z,33.07
2018-03-19T21:54:39.454Z,28.10
2018-03-19T21:57:08.418Z,27.87
2018-03-19T21:59:38.426Z,27.63
2018-03-19T22:02:06.997Z,26.40
2018-03-19T22:04:36.968Z,27.63
2018-03-19T22:07:06.121Z,25.50
2018-03-19T22:09:35.606Z,26.57
2018-03-19T22:12:05.368Z,27.63
2018-03-19T22:14:36.110Z,26.63
2018-03-19T22:17:04.589Z,26.80
2018-03-19T22:19:33.942Z,27.57
2018-03-19T22:22:02.431Z,25.40
2018-03-19T22:24:30.459Z,24.77
2018-03-19T22:26:58.031Z,26.43
2018-03-19T22:29:27.998Z,25.87
2018-03-19T22:31:57.930Z,24.33
2018-03-19T22:34:27.003Z,27.30
2018-03-19T22:36:57.172Z,26.80
2018-03-19T22:39:26.433Z,24.20
2018-03-19T22:41:56.274Z,25.17
2018-03-19T22:46:58.185Z,23.10
2018-03-19T22:49:26.649Z,25.33
2018-03-19T22:51:55.275Z,25.30
2018-03-19T22:54:24.167Z,24.93
2018-03-19T22:56:53.255Z,24.13
2018-03-19T22:59:23.374Z,23.97
2018-03-19T23:01:51.717Z,23.90
2018-03-19T23:04:32.515Z,22.97
2018-03-19T23:07:00.112Z,24.80
2018-03-19T23:09:27.676Z,23.47
2018-03-19T23:11:56.683Z,24.63
2018-03-19T23:14:24.354Z,21.73
2018-03-19T23:16:51.953Z,24.23
2018-03-19T23:19:20.159Z,22.83
2018-03-19T23:21:47.743Z,23.90
2018-03-19T23:24:15.311Z,23.10
2018-03-19T23:26:42.946Z,23.37
2018-03-19T23:29:11.824Z,22.97
2018-03-19T23:31:39.458Z,23.80
2018-03-19T23:34:07.149Z,21.90
2018-03-19T23:36:34.810Z,22.00
2018-03-19T23:39:02.415Z,22.70
2018-03-19T23:41:30.033Z,21.30
2018-03-19T23:43:57.591Z,23.47
2018-03-19T23:46:26.715Z,22.90
2018-03-19T23:48:55.829Z,24.43
2018-03-19T23:51:23.409Z,21.07
2018-03-19T23:53:50.982Z,20.97
2018-03-19T23:56:18.580Z,21.40
2018-03-19T23:58:47.290Z,22.60
